Time;durP1;ratioP1;P1;durP2;ratioP2;P2;SDS_P1;SDS_P2;PMS_P1;PMS_P2;Temp;Humidity;BMP_temperature;BMP_pressure;BME280_temperature;BME280_humidity;BME280_pressure;Samples;Min_cycle;Max_cycle;Signal;HPM_P1;HPM_P2
2022/07/23 00:00:49;;;;;;;;;;;;;;;;;;5033446;28;20351;-63
2022/07/23 00:03:15;;;;;;;;;;;;;;;;;;5036809;28;19921;-62
2022/07/23 00:05:41;;;;;;;;;;;;;;;;;;5040775;28;20541;-63
2022/07/23 00:08:07;;;;;;;;;;;;;;;;;;5025845;28;19960;-63
2022/07/23 00:10:33;;;;;;;;;;;;;;;;;;5022906;28;19929;-63
2022/07/23 00:12:59;;;;;;;;;;;;;;;;;;5036776;28;19971;-63
2022/07/23 00:15:25;;;;;;;;;;;;;;;;;;5028098;28;20544;-62
2022/07/23 00:17:51;;;;;;;;;;;;;;;;;;5032692;28;19920;-63
2022/07/23 00:20:16;;;;;;;;;;;;;;;;;;5036423;28;20297;-64
2022/07/23 00:22:42;;;;;;;;;;;;;;;;;;5029750;28;19923;-64
2022/07/23 00:25:08;;;;;;;;;;;;;;;;;;5030109;28;19916;-63
2022/07/23 00:27:34;;;;;;;;;;;;;;;;;;5031100;28;19926;-63
2022/07/23 00:30:00;;;;;;;;;;;;;;;;;;5009322;28;20183;-62
2022/07/23 00:32:26;;;;;;;;;;;;;;;;;;5014593;28;19920;-63
2022/07/23 00:34:51;;;;;;;;;;;;;;;;;;5020678;28;19943;-63
2022/07/23 00:37:17;;;;;;;;;;;;;;;;;;5029602;28;19964;-64
2022/07/23 00:39:43;;;;;;;;;;;;;;;;;;5023391;28;19912;-63
2022/07/23 00:42:09;;;;;;;;;;;;;;;;;;5022808;28;20362;-63
2022/07/23 00:44:35;;;;;;;;;;;;;;;;;;5011855;28;19966;-63
2022/07/23 00:47:01;;;;;;;;;;;;;;;;;;5023573;28;19919;-62
2022/07/23 00:49:27;;;;;;;;;;;;;;;;;;5036328;28;19916;-63
2022/07/23 00:51:53;;;;;;;;;;;;;;;;;;5037395;28;19920;-63
2022/07/23 00:54:19;;;;;;;;;;;;;;;;;;5035636;28;19923;-62
2022/07/23 00:56:44;;;;;;;;;;;;;;;;;;5035973;28;19924;-62
2022/07/23 00:59:10;;;;;;;;;;;;;;;;;;5037618;28;19916;-63
2022/07/23 01:01:36;;;;;;;;;;;;;;;;;;5039999;28;19920;-59
2022/07/23 01:04:02;;;;;;;;;;;;;;;;;;5035672;28;19931;-61
2022/07/23 01:06:28;;;;;;;;;;;;;;;;;;5034307;28;25285;-61
2022/07/23 01:08:54;;;;;;;;;;;;;;;;;;5031954;28;19924;-62
2022/07/23 01:11:20;;;;;;;;;;;;;;;;;;5035659;28;19952;-61
2022/07/23 01:13:46;;;;;;;;;;;;;;;;;;5026678;28;20002;-61
2022/07/23 01:16:11;;;;;;;;;;;;;;;;;;5028850;28;19974;-61
2022/07/23 01:18:37;;;;;;;;;;;;;;;;;;5037047;28;20815;-61
2022/07/23 01:21:03;;;;;;;;;;;;;;;;;;5032007;28;19925;-61
2022/07/23 01:23:29;;;;;;;;;;;;;;;;;;5035495;28;19916;-61
2022/07/23 01:25:55;;;;;;;;;;;;;;;;;;5035041;28;20507;-62
2022/07/23 01:28:21;;;;;;;;;;;;;;;;;;5033286;28;19916;-61
2022/07/23 01:30:47;;;;;;;;;;;;;;;;;;5029080;28;19916;-61
2022/07/23 01:33:13;;;;;;;;;;;;;;;;;;5022277;28;19923;-61
2022/07/23 01:35:38;;;;;;;;;;;;;;;;;;5034706;28;19920;-63
2022/07/23 01:38:04;;;;;;;;;;;;;;;;;;5031514;28;19924;-60
2022/07/23 01:40:30;;;;;;;;;;;;;;;;;;5034056;28;20906;-60
2022/07/23 01:42:56;;;;;;;;;;;;;;;;;;5027904;28;19921;-60
2022/07/23 01:45:22;;;;;;;;;;;;;;;;;;5031105;28;19962;-60
2022/07/23 01:47:48;;;;;;;;;;;;;;;;;;5035654;28;19917;-60
2022/07/23 01:50:14;;;;;;;;;;;;;;;;;;5041395;28;20066;-60
2022/07/23 01:52:39;;;;;;;;;;;;;;;;;;5038910;28;19942;-61
2022/07/23 01:55:05;;;;;;;;;;;;;;;;;;5038365;28;19920;-60
2022/07/23 01:57:31;;;;;;;;;;;;;;;;;;5031552;28;20735;-60
2022/07/23 01:59:57;;;;;;;;;;;;;;;;;;5036827;28;19924;-60
2022/07/23 02:02:23;;;;;;;;;;;;;;;;;;5040742;28;19924;-60
2022/07/23 02:04:49;;;;;;;;;;;;;;;;;;5039453;28;20388;-61
2022/07/23 02:07:15;;;;;;;;;;;;;;;;;;5038943;28;19920;-60
2022/07/23 02:09:41;;;;;;;;;;;;;;;;;;5042592;28;19921;-60
2022/07/23 02:12:07;;;;;;;;;;;;;;;;;;5027746;28;20316;-60
2022/07/23 02:14:32;;;;;;;;;;;;;;;;;;5027779;28;20513;-60
2022/07/23 02:16:58;;;;;;;;;;;;;;;;;;5030163;28;19921;-60
2022/07/23 02:19:24;;;;;;;;;;;;;;;;;;5032004;28;20369;-60
2022/07/23 02:21:50;;;;;;;;;;;;;;;;;;5024958;28;20042;-59
2022/07/23 02:24:16;;;;;;;;;;;;;;;;;;5030372;28;19920;-60
2022/07/23 02:26:42;;;;;;;;;;;;;;;;;;5033401;28;19927;-59
2022/07/23 02:29:08;;;;;;;;;;;;;;;;;;5038140;28;19916;-59
2022/07/23 02:31:34;;;;;;;;;;;;;;;;;;5025843;28;19927;-60
2022/07/23 02:34:00;;;;;;;;;;;;;;;;;;5030954;28;19924;-59
2022/07/23 02:36:26;;;;;;;;;;;;;;;;;;5025302;28;21065;-61
2022/07/23 02:38:51;;;;;;;;;;;;;;;;;;5026960;28;19928;-61
2022/07/23 02:41:17;;;;;;;;;;;;;;;;;;5027236;28;20365;-61
2022/07/23 02:43:43;;;;;;;;;;;;;;;;;;5031521;28;19927;-61
2022/07/23 02:46:09;;;;;;;;;;;;;;;;;;5032483;28;19917;-61
2022/07/23 02:48:35;;;;;;;;;;;;;;;;;;5023477;28;20487;-61
2022/07/23 02:51:01;;;;;;;;;;;;;;;;;;5026963;28;19917;-61
2022/07/23 02:53:27;;;;;;;;;;;;;;;;;;5019228;28;19921;-61
2022/07/23 02:55:52;;;;;;;;;;;;;;;;;;5033750;28;20565;-61
2022/07/23 02:58:18;;;;;;;;;;;;;;;;;;5028661;28;19927;-61
2022/07/23 03:00:44;;;;;;;;;;;;;;;;;;5026497;28;19920;-60
2022/07/23 03:03:10;;;;;;;;;;;;;;;;;;5025766;28;19932;-61
2022/07/23 03:05:36;;;;;;;;;;;;;;;;;;5016164;28;19917;-61
2022/07/23 03:08:02;;;;;;;;;;;;;;;;;;5009870;28;19921;-61
2022/07/23 03:10:28;;;;;;;;;;;;;;;;;;5029735;28;19923;-61
2022/07/23 03:12:53;;;;;;;;;;;;;;;;;;5039972;28;19998;-60
2022/07/23 03:15:19;;;;;;;;;;;;;;;;;;5036300;28;20349;-61
2022/07/23 03:17:45;;;;;;;;;;;;;;;;;;5039829;28;19917;-62
2022/07/23 03:20:11;;;;;;;;;;;;;;;;;;5044645;28;20008;-61
2022/07/23 03:22:37;;;;;;;;;;;;;;;;;;5045572;28;19916;-61
2022/07/23 03:25:03;;;;;;;;;;;;;;;;;;5042166;28;20399;-62
2022/07/23 03:27:29;;;;;;;;;;;;;;;;;;5041487;28;19928;-61
2022/07/23 03:29:54;;;;;;;;;;;;;;;;;;5043199;28;20122;-59
2022/07/23 03:32:20;;;;;;;;;;;;;;;;;;5037463;28;20297;-62
2022/07/23 03:34:46;;;;;;;;;;;;;;;;;;5047594;28;19924;-59
2022/07/23 03:37:12;;;;;;;;;;;;;;;;;;5045968;28;19931;-59
2022/07/23 03:39:38;;;;;;;;;;;;;;;;;;5044321;28;19917;-61
2022/07/23 03:42:04;;;;;;;;;;;;;;;;;;5045763;28;20278;-62
2022/07/23 03:44:30;;;;;;;;;;;;;;;;;;5067202;28;19923;-61
2022/07/23 03:46:56;;;;;;;;;;;;;;;;;;5048115;28;20389;-61
2022/07/23 03:49:21;;;;;;;;;;;;;;;;;;5037448;28;19916;-62
2022/07/23 03:51:47;;;;;;;;;;;;;;;;;;5040521;28;20011;-61
2022/07/23 03:54:13;;;;;;;;;;;;;;;;;;5047991;28;20255;-61
2022/07/23 03:56:39;;;;;;;;;;;;;;;;;;5041332;28;19926;-61
2022/07/23 03:59:05;;;;;;;;;;;;;;;;;;5040104;28;21249;-62
2022/07/23 04:01:31;;;;;;;;;;;;;;;;;;5037458;28;19926;-61
2022/07/23 04:03:57;;;;;;;;;;;;;;;;;;5044506;28;19936;-61
2022/07/23 04:06:22;;;;;;;;;;;;;;;;;;5044034;28;20365;-59
2022/07/23 04:08:48;;;;;;;;;;;;;;;;;;5027973;28;19920;-62
2022/07/23 04:11:14;;;;;;;;;;;;;;;;;;5033518;28;19927;-61
2022/07/23 04:13:40;;;;;;;;;;;;;;;;;;5037523;28;19916;-62
2022/07/23 04:16:06;;;;;;;;;;;;;;;;;;5038003;28;20374;-61
2022/07/23 04:18:32;;;;;;;;;;;;;;;;;;5044963;28;19924;-62
2022/07/23 04:20:58;;;;;;;;;;;;;;;;;;5042035;28;19916;-61
2022/07/23 04:23:23;;;;;;;;;;;;;;;;;;5038044;28;20638;-62
2022/07/23 04:25:49;;;;;;;;;;;;;;;;;;5043539;28;19943;-62
2022/07/23 04:28:15;;;;;;;;;;;;;;;;;;5044087;28;19921;-62
2022/07/23 04:30:41;;;;;;;;;;;;;;;;;;5024260;28;19916;-61
2022/07/23 04:33:07;;;;;;;;;;;;;;;;;;5027062;28;20381;-60
2022/07/23 04:35:33;;;;;;;;;;;;;;;;;;5028333;28;19920;-62
2022/07/23 04:37:59;;;;;;;;;;;;;;;;;;5046481;28;19939;-61
2022/07/23 04:40:25;;;;;;;;;;;;;;;;;;5037424;28;20447;-61
2022/07/23 04:42:51;;;;;;;;;;;;;;;;;;5038807;28;21379;-61
2022/07/23 04:45:16;;;;;;;;;;;;;;;;;;5023245;28;20427;-62
2022/07/23 04:47:42;;;;;;;;;;;;;;;;;;5039443;28;19927;-61
2022/07/23 04:50:08;;;;;;;;;;;;;;;;;;5037758;28;19917;-62
2022/07/23 04:52:34;;;;;;;;;;;;;;;;;;5044261;28;19966;-62
2022/07/23 04:55:00;;;;;;;;;;;;;;;;;;5041795;28;19920;-62
2022/07/23 04:57:26;;;;;;;;;;;;;;;;;;5052485;28;19935;-62
2022/07/23 04:59:52;;;;;;;;;;;;;;;;;;5042121;28;20843;-61
2022/07/23 05:02:17;;;;;;;;;;;;;;;;;;5032656;28;19939;-61
2022/07/23 05:04:43;;;;;;;;;;;;;;;;;;5045219;28;19927;-62
2022/07/23 05:07:09;;;;;;;;;;;;;;;;;;5048703;28;20378;-61
2022/07/23 05:09:35;;;;;;;;;;;;;;;;;;5042985;28;19913;-61
2022/07/23 05:12:01;;;;;;;;;;;;;;;;;;5033246;28;19963;-62
2022/07/23 05:14:27;;;;;;;;;;;;;;;;;;5042304;28;19923;-61
2022/07/23 05:16:53;;;;;;;;;;;;;;;;;;5041723;28;20502;-61
2022/07/23 05:19:19;;;;;;;;;;;;;;;;;;5040110;28;19916;-62
2022/07/23 05:21:45;;;;;;;;;;;;;;;;;;5039188;28;19920;-62
2022/07/23 05:24:11;;;;;;;;;;;;;;;;;;5048249;28;20011;-61
2022/07/23 05:26:37;;;;;;;;;;;;;;;;;;5039821;28;20337;-61
2022/07/23 05:29:03;;;;;;;;;;;;;;;;;;5043820;28;20385;-61
2022/07/23 05:31:28;;;;;;;;;;;;;;;;;;5037419;28;19924;-61
2022/07/23 05:33:54;;;;;;;;;;;;;;;;;;5039248;28;19921;-61
2022/07/23 05:36:20;;;;;;;;;;;;;;;;;;5038910;28;19920;-61
2022/07/23 05:38:46;;;;;;;;;;;;;;;;;;5029268;28;20453;-62
2022/07/23 05:41:12;;;;;;;;;;;;;;;;;;5033372;28;19927;-62
2022/07/23 05:43:38;;;;;;;;;;;;;;;;;;5026116;28;19916;-61
2022/07/23 05:46:04;;;;;;;;;;;;;;;;;;5025521;28;20445;-62
2022/07/23 05:48:29;;;;;;;;;;;;;;;;;;5030260;28;19939;-62
2022/07/23 05:50:55;;;;;;;;;;;;;;;;;;5019327;28;19999;-62
2022/07/23 05:53:21;;;;;;;;;;;;;;;;;;5007219;28;20023;-61
2022/07/23 05:55:47;;;;;;;;;;;;;;;;;;4997466;28;19925;-62
2022/07/23 05:58:13;;;;;;;;;;;;;;;;;;5019560;28;19925;-61
2022/07/23 06:00:39;;;;;;;;;;;;;;;;;;5040737;28;19920;-61
2022/07/23 06:03:05;;;;;;;;;;;;;;;;;;5041143;28;19928;-61
2022/07/23 06:05:31;;;;;;;;;;;;;;;;;;5037692;28;20274;-62
2022/07/23 06:07:56;;;;;;;;;;;;;;;;;;5043293;28;20038;-62
2022/07/23 06:10:22;;;;;;;;;;;;;;;;;;5034975;28;19970;-61
2022/07/23 06:12:48;;;;;;;;;;;;;;;;;;5041447;28;19931;-62
2022/07/23 06:15:14;;;;;;;;;;;;;;;;;;5027472;28;20059;-61
2022/07/23 06:17:40;;;;;;;;;;;;;;;;;;5013915;28;20826;-62
2022/07/23 06:20:06;;;;;;;;;;;;;;;;;;5015155;28;19962;-61
2022/07/23 06:22:32;;;;;;;;;;;;;;;;;;5016059;28;19921;-60
2022/07/23 06:24:58;;;;;;;;;;;;;;;;;;5013748;28;19921;-62
2022/07/23 06:27:23;;;;;;;;;;;;;;;;;;5021660;28;19917;-62
2022/07/23 06:29:49;;;;;;;;;;;;;;;;;;5022169;28;19923;-62
2022/07/23 06:32:15;;;;;;;;;;;;;;;;;;5008934;28;19921;-62
2022/07/23 06:34:41;;;;;;;;;;;;;;;;;;5008664;28;20369;-62
2022/07/23 06:37:07;;;;;;;;;;;;;;;;;;5018600;28;19991;-61
2022/07/23 06:39:33;;;;;;;;;;;;;;;;;;5000687;28;19917;-64
2022/07/23 06:42:00;;;;;;;;;;;;;;;;;;5028000;28;19928;-63
2022/07/23 06:44:26;;;;;;;;;;;;;;;;;;5012675;28;20264;-59
2022/07/23 06:46:52;;;;;;;;;;;;;;;;;;5014043;28;19970;-61
2022/07/23 06:49:18;;;;;;;;;;;;;;;;;;5011990;28;19921;-61
2022/07/23 06:51:44;;;;;;;;;;;;;;;;;;5020625;28;19999;-61
2022/07/23 06:54:10;;;;;;;;;;;;;;;;;;5005587;28;19970;-61
2022/07/23 06:56:36;;;;;;;;;;;;;;;;;;5006952;28;19928;-61
2022/07/23 06:59:02;;;;;;;;;;;;;;;;;;5016886;28;19964;-63
2022/07/23 07:01:28;;;;;;;;;;;;;;;;;;5014094;28;19926;-62
2022/07/23 07:03:53;;;;;;;;;;;;;;;;;;5019285;28;19924;-62
2022/07/23 07:06:19;;;;;;;;;;;;;;;;;;5010594;28;19920;-62
2022/07/23 07:08:45;;;;;;;;;;;;;;;;;;5013345;28;19928;-63
2022/07/23 07:11:11;;;;;;;;;;;;;;;;;;5029143;28;19923;-63
2022/07/23 07:13:37;;;;;;;;;;;;;;;;;;5017162;28;19921;-62
2022/07/23 07:16:03;;;;;;;;;;;;;;;;;;5028775;28;19931;-62
2022/07/23 07:18:29;;;;;;;;;;;;;;;;;;5026158;28;19925;-63
2022/07/23 07:20:55;;;;;;;;;;;;;;;;;;5028708;28;20402;-63
2022/07/23 07:23:21;;;;;;;;;;;;;;;;;;5017045;28;20344;-63
2022/07/23 07:25:47;;;;;;;;;;;;;;;;;;5014556;28;21844;-62
2022/07/23 07:28:12;;;;;;;;;;;;;;;;;;5023769;28;19921;-63
2022/07/23 07:30:38;;;;;;;;;;;;;;;;;;5018226;28;19931;-62
2022/07/23 07:33:04;;;;;;;;;;;;;;;;;;5018928;28;19998;-63
2022/07/23 07:35:32;;;;;;;;;;;;;;;;;;5025939;28;19917;-63
2022/07/23 07:37:58;;;;;;;;;;;;;;;;;;5024503;28;19956;-60
2022/07/23 07:40:23;;;;;;;;;;;;;;;;;;5021510;28;20008;-60
2022/07/23 07:42:49;;;;;;;;;;;;;;;;;;5009954;28;20371;-61
2022/07/23 07:45:15;;;;;;;;;;;;;;;;;;5010948;28;20547;-60
2022/07/23 07:47:41;;;;;;;;;;;;;;;;;;5015885;28;20021;-61
2022/07/23 07:50:07;;;;;;;;;;;;;;;;;;5020096;28;20000;-60
2022/07/23 07:52:33;;;;;;;;;;;;;;;;;;5015340;28;20860;-60
2022/07/23 07:54:59;;;;;;;;;;;;;;;;;;5022678;28;20522;-61
2022/07/23 07:57:25;;;;;;;;;;;;;;;;;;5022253;28;20387;-60
2022/07/23 07:59:51;;;;;;;;;;;;;;;;;;5015534;28;19925;-61
2022/07/23 08:02:17;;;;;;;;;;;;;;;;;;5029748;28;19924;-60
2022/07/23 08:04:44;;;;;;;;;;;;;;;;;;5008182;28;19920;-60
2022/07/23 08:07:10;;;;;;;;;;;;;;;;;;5012837;28;19923;-61
2022/07/23 08:09:36;;;;;;;;;;;;;;;;;;5018616;28;19922;-61
2022/07/23 08:12:02;;;;;;;;;;;;;;;;;;5023119;28;19916;-58
2022/07/23 08:14:27;;;;;;;;;;;;;;;;;;5017948;28;19935;-60
2022/07/23 08:16:53;;;;;;;;;;;;;;;;;;5022234;28;20556;-60
2022/07/23 08:19:19;;;;;;;;;;;;;;;;;;5019301;28;19995;-61
2022/07/23 08:21:45;;;;;;;;;;;;;;;;;;5023756;28;20875;-60
2022/07/23 08:24:11;;;;;;;;;;;;;;;;;;5013854;28;19923;-60
2022/07/23 08:26:37;;;;;;;;;;;;;;;;;;5020474;28;20040;-58
2022/07/23 08:29:03;;;;;;;;;;;;;;;;;;5027793;28;20655;-58
2022/07/23 08:31:29;;;;;;;;;;;;;;;;;;5019338;28;19948;-58
2022/07/23 08:33:56;;;;;;;;;;;;;;;;;;5023772;28;20028;-60
2022/07/23 08:36:22;;;;;;;;;;;;;;;;;;5015039;28;21449;-60
2022/07/23 08:38:48;;;;;;;;;;;;;;;;;;5015649;28;19961;-62
2022/07/23 08:41:14;;;;;;;;;;;;;;;;;;5007359;28;19921;-61
2022/07/23 08:43:40;;;;;;;;;;;;;;;;;;5022817;28;19969;-62
2022/07/23 08:46:06;;;;;;;;;;;;;;;;;;5016650;28;21227;-61
2022/07/23 08:48:32;;;;;;;;;;;;;;;;;;5028079;28;19929;-61
2022/07/23 08:50:57;;;;;;;;;;;;;;;;;;5021513;28;20390;-60
2022/07/23 08:53:23;;;;;;;;;;;;;;;;;;5028711;28;19920;-61
2022/07/23 08:55:49;;;;;;;;;;;;;;;;;;5025934;28;19948;-61
2022/07/23 08:58:15;;;;;;;;;;;;;;;;;;5033113;28;19983;-61
2022/07/23 09:00:41;;;;;;;;;;;;;;;;;;5036105;28;19978;-61
2022/07/23 09:03:07;;;;;;;;;;;;;;;;;;5032113;28;19913;-61
2022/07/23 09:05:33;;;;;;;;;;;;;;;;;;5017629;28;19957;-61
2022/07/23 09:07:59;;;;;;;;;;;;;;;;;;5048138;28;19977;-61
2022/07/23 09:10:24;;;;;;;;;;;;;;;;;;5040740;28;20401;-61
2022/07/23 09:12:50;;;;;;;;;;;;;;;;;;5034235;28;20055;-61
2022/07/23 09:15:16;;;;;;;;;;;;;;;;;;5030120;28;19928;-61
2022/07/23 09:17:42;;;;;;;;;;;;;;;;;;5034882;28;19925;-62
2022/07/23 09:20:08;;;;;;;;;;;;;;;;;;5029518;28;20489;-61
2022/07/23 09:22:34;;;;;;;;;;;;;;;;;;5027025;28;19940;-60
2022/07/23 09:25:00;;;;;;;;;;;;;;;;;;5028323;28;20385;-61
2022/07/23 09:27:26;;;;;;;;;;;;;;;;;;5031271;28;19913;-61
2022/07/23 09:29:51;;;;;;;;;;;;;;;;;;5036640;28;19931;-60
2022/07/23 09:32:17;;;;;;;;;;;;;;;;;;5030627;28;20431;-61
2022/07/23 09:34:43;;;;;;;;;;;;;;;;;;5033289;28;19921;-60
2022/07/23 09:37:09;;;;;;;;;;;;;;;;;;5027801;28;19928;-61
2022/07/23 09:39:35;;;;;;;;;;;;;;;;;;5035821;28;20374;-61
2022/07/23 09:42:01;;;;;;;;;;;;;;;;;;5035417;28;19927;-61
2022/07/23 09:44:27;;;;;;;;;;;;;;;;;;5039967;28;19924;-61
2022/07/23 09:46:52;;;;;;;;;;;;;;;;;;5034460;28;19921;-61
2022/07/23 09:49:19;;;;;;;;;;;;;;;;;;5027732;28;19923;-61
2022/07/23 09:51:46;;;;;;;;;;;;;;;;;;5030405;28;19916;-61
2022/07/23 09:54:11;;;;;;;;;;;;;;;;;;5030476;28;19920;-62
2022/07/23 09:56:37;;;;;;;;;;;;;;;;;;5038742;28;19914;-61
2022/07/23 09:59:14;;;;;;;;;;;;;;;;;;5022430;28;19929;-62
2022/07/23 10:01:40;;;;;;;;;;;;;;;;;;5026205;28;20055;-59
2022/07/23 10:04:06;;;;;;;;;;;;;;;;;;5030793;28;19995;-62
2022/07/23 10:06:32;;;;;;;;;;;;;;;;;;5030814;28;19924;-61
2022/07/23 10:08:58;;;;;;;;;;;;;;;;;;5027183;28;20407;-61
2022/07/23 10:11:24;;;;;;;;;;;;;;;;;;5030642;28;19927;-61
2022/07/23 10:16:15;;;;;;;;;;;;;;;;;;5027391;28;19924;-61
2022/07/23 10:18:41;;;;;;;;;;;;;;;;;;5028596;28;19921;-61
2022/07/23 10:21:07;;;;;;;;;;;;;;;;;;5027346;28;20390;-61
2022/07/23 10:23:33;;;;;;;;;;;;;;;;;;5030139;28;19924;-61
2022/07/23 10:25:59;;;;;;;;;;;;;;;;;;5031425;28;19916;-61
2022/07/23 10:28:26;;;;;;;;;;;;;;;;;;5029142;28;19958;-62
2022/07/23 10:30:52;;;;;;;;;;;;;;;;;;5031472;28;19928;-60
2022/07/23 10:33:18;;;;;;;;;;;;;;;;;;5032169;28;19917;-62
2022/07/23 10:35:44;;;;;;;;;;;;;;;;;;5025784;28;20273;-61
2022/07/23 10:38:09;;;;;;;;;;;;;;;;;;5031200;28;19924;-62
2022/07/23 10:40:35;;;;;;;;;;;;;;;;;;5032609;28;19916;-61
2022/07/23 10:43:01;;;;;;;;;;;;;;;;;;5031749;28;19920;-62
2022/07/23 10:45:27;;;;;;;;;;;;;;;;;;5028194;28;19945;-62
2022/07/23 10:47:53;;;;;;;;;;;;;;;;;;5035252;28;19917;-62
2022/07/23 10:50:19;;;;;;;;;;;;;;;;;;5030904;28;19916;-61
2022/07/23 10:52:45;;;;;;;;;;;;;;;;;;5027405;28;19916;-62
2022/07/23 10:55:11;;;;;;;;;;;;;;;;;;5026963;28;20289;-61
2022/07/23 10:57:37;;;;;;;;;;;;;;;;;;5027681;28;20515;-60
2022/07/23 11:00:10;;;;;;;;;;;;;;;;;;5029727;28;19928;-61
2022/07/23 11:02:36;;;;;;;;;;;;;;;;;;5034468;28;19916;-61
2022/07/23 11:05:02;;;;;;;;;;;;;;;;;;5031784;28;20811;-62
2022/07/23 11:07:28;;;;;;;;;;;;;;;;;;5030432;28;20015;-61
2022/07/23 11:09:54;;;;;;;;;;;;;;;;;;5033436;28;19921;-61
2022/07/23 11:12:19;;;;;;;;;;;;;;;;;;5031953;28;20090;-60
2022/07/23 11:14:45;;;;;;;;;;;;;;;;;;5031420;28;19925;-61
2022/07/23 11:17:11;;;;;;;;;;;;;;;;;;5029588;28;19919;-61
2022/07/23 11:19:37;;;;;;;;;;;;;;;;;;5030093;28;19924;-60
2022/07/23 11:22:03;;;;;;;;;;;;;;;;;;5027399;28;19921;-62
2022/07/23 11:24:29;;;;;;;;;;;;;;;;;;5030651;28;19917;-61
2022/07/23 11:26:55;;;;;;;;;;;;;;;;;;5032066;28;20560;-61
2022/07/23 11:29:21;;;;;;;;;;;;;;;;;;5033378;28;19920;-61
2022/07/23 11:31:47;;;;;;;;;;;;;;;;;;5023655;28;19999;-61
2022/07/23 11:34:13;;;;;;;;;;;;;;;;;;5025634;28;19921;-61
2022/07/23 11:36:38;;;;;;;;;;;;;;;;;;5017194;28;19943;-61
2022/07/23 11:39:04;;;;;;;;;;;;;;;;;;5025470;28;19921;-61
2022/07/23 11:41:30;;;;;;;;;;;;;;;;;;5030594;28;19917;-61
2022/07/23 11:43:56;;;;;;;;;;;;;;;;;;5033466;28;19916;-61
2022/07/23 11:46:22;;;;;;;;;;;;;;;;;;5031113;28;19921;-61
2022/07/23 11:48:48;;;;;;;;;;;;;;;;;;5030523;28;20312;-62
2022/07/23 11:51:14;;;;;;;;;;;;;;;;;;5031938;28;19936;-62
2022/07/23 11:53:39;;;;;;;;;;;;;;;;;;5028421;28;19920;-61
2022/07/23 11:56:05;;;;;;;;;;;;;;;;;;5027617;28;19917;-60
2022/07/23 11:58:31;;;;;;;;;;;;;;;;;;5023502;28;20305;-61
2022/07/23 12:00:57;;;;;;;;;;;;;;;;;;5027205;28;19998;-61
2022/07/23 12:03:23;;;;;;;;;;;;;;;;;;5028619;28;19921;-61
2022/07/23 12:05:49;;;;;;;;;;;;;;;;;;5034746;28;20013;-61
2022/07/23 12:08:15;;;;;;;;;;;;;;;;;;5034750;28;20285;-61
2022/07/23 12:10:41;;;;;;;;;;;;;;;;;;5028587;28;20509;-61
2022/07/23 12:13:07;;;;;;;;;;;;;;;;;;5030829;28;19936;-61
2022/07/23 12:15:33;;;;;;;;;;;;;;;;;;5025682;28;19927;-60
2022/07/23 12:17:59;;;;;;;;;;;;;;;;;;5032044;28;20420;-61
2022/07/23 12:20:25;;;;;;;;;;;;;;;;;;5027755;28;19917;-61
2022/07/23 12:22:51;;;;;;;;;;;;;;;;;;5027649;28;20007;-61
2022/07/23 12:25:17;;;;;;;;;;;;;;;;;;5025599;28;19916;-61
2022/07/23 12:27:42;;;;;;;;;;;;;;;;;;5025008;28;20364;-61
2022/07/23 12:30:08;;;;;;;;;;;;;;;;;;5029837;28;20519;-61
2022/07/23 12:32:34;;;;;;;;;;;;;;;;;;5031770;28;19923;-62
2022/07/23 12:35:00;;;;;;;;;;;;;;;;;;5029665;28;19960;-61
2022/07/23 12:37:26;;;;;;;;;;;;;;;;;;5035671;28;19917;-61
2022/07/23 12:39:52;;;;;;;;;;;;;;;;;;5041556;28;19928;-61
2022/07/23 12:42:18;;;;;;;;;;;;;;;;;;5028981;28;19917;-61
2022/07/23 12:44:44;;;;;;;;;;;;;;;;;;5025656;28;20429;-61
2022/07/23 12:47:10;;;;;;;;;;;;;;;;;;5029261;28;19994;-61
2022/07/23 12:49:36;;;;;;;;;;;;;;;;;;5026066;28;20370;-61
2022/07/23 12:52:02;;;;;;;;;;;;;;;;;;5031189;28;19928;-61
2022/07/23 12:54:28;;;;;;;;;;;;;;;;;;5023488;28;19925;-61
2022/07/23 12:56:55;;;;;;;;;;;;;;;;;;5026850;28;19916;-60
2022/07/23 12:59:21;;;;;;;;;;;;;;;;;;5019800;28;19921;-61
2022/07/23 13:01:48;;;;;;;;;;;;;;;;;;5029154;28;19928;-62
2022/07/23 13:04:14;;;;;;;;;;;;;;;;;;5029518;28;19917;-60
2022/07/23 13:06:40;;;;;;;;;;;;;;;;;;5029847;28;20248;-61
2022/07/23 13:09:06;;;;;;;;;;;;;;;;;;5037446;28;19924;-61
2022/07/23 13:11:32;;;;;;;;;;;;;;;;;;5026943;28;19921;-61
2022/07/23 13:13:58;;;;;;;;;;;;;;;;;;5026949;28;20343;-62
2022/07/23 13:16:23;;;;;;;;;;;;;;;;;;5026555;28;19917;-62
2022/07/23 13:18:49;;;;;;;;;;;;;;;;;;5028151;28;19921;-61
2022/07/23 13:21:15;;;;;;;;;;;;;;;;;;5025795;28;19917;-61
2022/07/23 13:23:41;;;;;;;;;;;;;;;;;;5026291;28;19927;-60
2022/07/23 13:26:07;;;;;;;;;;;;;;;;;;5030834;28;20275;-61
2022/07/23 13:28:33;;;;;;;;;;;;;;;;;;5027956;28;19932;-61
2022/07/23 13:30:59;;;;;;;;;;;;;;;;;;5035196;28;19917;-61
2022/07/23 13:33:25;;;;;;;;;;;;;;;;;;5030981;28;19923;-60
2022/07/23 13:35:50;;;;;;;;;;;;;;;;;;5022313;28;19922;-61
2022/07/23 13:38:16;;;;;;;;;;;;;;;;;;5027240;28;19943;-61
2022/07/23 13:40:42;;;;;;;;;;;;;;;;;;5032810;28;20015;-61
2022/07/23 13:43:08;;;;;;;;;;;;;;;;;;5030749;28;19925;-61
2022/07/23 13:45:34;;;;;;;;;;;;;;;;;;5031588;28;19923;-61
2022/07/23 13:48:00;;;;;;;;;;;;;;;;;;5034393;28;20662;-61
2022/07/23 13:50:26;;;;;;;;;;;;;;;;;;5033905;28;19936;-61
2022/07/23 13:52:52;;;;;;;;;;;;;;;;;;5032528;28;19927;-61
2022/07/23 13:55:17;;;;;;;;;;;;;;;;;;5028475;28;19917;-61
2022/07/23 13:57:43;;;;;;;;;;;;;;;;;;5029145;28;19932;-61
2022/07/23 14:00:10;;;;;;;;;;;;;;;;;;5028963;28;19916;-60
2022/07/23 14:02:36;;;;;;;;;;;;;;;;;;5027004;28;20018;-60
2022/07/23 14:05:02;;;;;;;;;;;;;;;;;;5025784;28;19986;-61
2022/07/23 14:07:28;;;;;;;;;;;;;;;;;;5025942;28;20626;-61
2022/07/23 14:09:54;;;;;;;;;;;;;;;;;;5032539;28;19939;-60
2022/07/23 14:12:20;;;;;;;;;;;;;;;;;;5031638;28;20008;-61
2022/07/23 14:14:45;;;;;;;;;;;;;;;;;;5032981;28;19920;-61
2022/07/23 14:17:11;;;;;;;;;;;;;;;;;;5032637;28;19967;-61
2022/07/23 14:19:37;;;;;;;;;;;;;;;;;;5035191;28;20481;-60
2022/07/23 14:22:03;;;;;;;;;;;;;;;;;;5034690;28;19917;-61
2022/07/23 14:24:29;;;;;;;;;;;;;;;;;;5039104;28;20077;-61
2022/07/23 14:26:55;;;;;;;;;;;;;;;;;;5033030;28;19920;-60
2022/07/23 14:29:21;;;;;;;;;;;;;;;;;;5032875;28;19988;-61
2022/07/23 14:31:47;;;;;;;;;;;;;;;;;;5038771;28;20358;-61
2022/07/23 14:34:12;;;;;;;;;;;;;;;;;;5042277;28;20024;-59
2022/07/23 14:36:38;;;;;;;;;;;;;;;;;;5035972;28;19991;-61
2022/07/23 14:39:04;;;;;;;;;;;;;;;;;;5032964;28;20381;-60
2022/07/23 14:41:31;;;;;;;;;;;;;;;;;;5033498;28;19930;-60
2022/07/23 14:43:57;;;;;;;;;;;;;;;;;;5032252;28;19917;-60
2022/07/23 14:46:22;;;;;;;;;;;;;;;;;;5036100;28;19920;-60
2022/07/23 14:48:48;;;;;;;;;;;;;;;;;;5036235;28;20066;-61
2022/07/23 14:51:14;;;;;;;;;;;;;;;;;;5039313;28;19960;-61
2022/07/23 14:53:40;;;;;;;;;;;;;;;;;;5035365;28;19928;-60
2022/07/23 14:56:06;;;;;;;;;;;;;;;;;;5036255;28;20448;-61
2022/07/23 14:58:32;;;;;;;;;;;;;;;;;;5037109;28;19912;-60
2022/07/23 15:00:58;;;;;;;;;;;;;;;;;;5030767;28;19928;-60
2022/07/23 15:03:24;;;;;;;;;;;;;;;;;;5025462;28;19913;-60
2022/07/23 15:05:50;;;;;;;;;;;;;;;;;;5038028;28;19920;-60
2022/07/23 15:08:16;;;;;;;;;;;;;;;;;;5034605;28;19947;-60
2022/07/23 15:10:42;;;;;;;;;;;;;;;;;;5034107;28;19916;-60
2022/07/23 15:13:08;;;;;;;;;;;;;;;;;;5037148;28;19988;-60
2022/07/23 15:15:33;;;;;;;;;;;;;;;;;;5033213;28;19952;-60
2022/07/23 15:17:59;;;;;;;;;;;;;;;;;;5033098;28;20251;-60
2022/07/23 15:20:25;;;;;;;;;;;;;;;;;;5031579;28;19976;-60
2022/07/23 15:22:51;;;;;;;;;;;;;;;;;;5024579;28;20016;-60
2022/07/23 15:25:17;;;;;;;;;;;;;;;;;;5030562;28;19920;-61
2022/07/23 15:27:43;;;;;;;;;;;;;;;;;;5034797;28;20018;-60
2022/07/23 15:30:09;;;;;;;;;;;;;;;;;;5033706;28;19916;-60
2022/07/23 15:32:34;;;;;;;;;;;;;;;;;;5030117;28;19923;-60
2022/07/23 15:35:00;;;;;;;;;;;;;;;;;;5033523;28;19913;-60
2022/07/23 15:37:26;;;;;;;;;;;;;;;;;;5033410;28;20405;-60
2022/07/23 15:39:52;;;;;;;;;;;;;;;;;;5029037;28;19999;-60
2022/07/23 15:42:18;;;;;;;;;;;;;;;;;;5033590;28;20066;-60
2022/07/23 15:44:44;;;;;;;;;;;;;;;;;;5033427;28;19920;-60
2022/07/23 15:47:10;;;;;;;;;;;;;;;;;;5032438;28;19936;-60
2022/07/23 15:49:36;;;;;;;;;;;;;;;;;;5034591;28;19928;-61
2022/07/23 15:52:02;;;;;;;;;;;;;;;;;;5036485;28;20343;-61
2022/07/23 15:54:28;;;;;;;;;;;;;;;;;;5029697;28;19924;-60
2022/07/23 15:56:54;;;;;;;;;;;;;;;;;;5025036;28;19924;-61
2022/07/23 15:59:19;;;;;;;;;;;;;;;;;;5034049;28;19923;-60
2022/07/23 16:01:45;;;;;;;;;;;;;;;;;;5024288;28;19921;-60
2022/07/23 16:04:11;;;;;;;;;;;;;;;;;;5029845;28;19917;-61
2022/07/23 16:06:37;;;;;;;;;;;;;;;;;;5036577;28;19920;-61
2022/07/23 16:09:03;;;;;;;;;;;;;;;;;;5027964;28;20382;-60
2022/07/23 16:11:29;;;;;;;;;;;;;;;;;;5032310;28;19967;-61
2022/07/23 16:13:55;;;;;;;;;;;;;;;;;;5028772;28;20326;-60
2022/07/23 16:16:22;;;;;;;;;;;;;;;;;;5031395;28;19921;-61
2022/07/23 16:18:50;;;;;;;;;;;;;;;;;;5026289;28;19921;-61
2022/07/23 16:21:17;;;;;;;;;;;;;;;;;;5023126;28;19921;-60
2022/07/23 16:23:43;;;;;;;;;;;;;;;;;;5030799;28;19921;-61
2022/07/23 16:26:08;;;;;;;;;;;;;;;;;;5028607;28;19924;-60
2022/07/23 16:28:34;;;;;;;;;;;;;;;;;;5034272;28;19931;-60
2022/07/23 16:31:00;;;;;;;;;;;;;;;;;;5032844;28;19952;-60
2022/07/23 16:33:26;;;;;;;;;;;;;;;;;;5030816;28;19927;-61
2022/07/23 16:35:52;;;;;;;;;;;;;;;;;;5029951;28;19921;-60
2022/07/23 16:38:19;;;;;;;;;;;;;;;;;;5033837;28;19924;-60